sensor_id;sensor_type;location;lat;lon;timestamp;temperature;humidity
1391;DHT22;690;51.454;7.194;2023-03-21T00:01:43;12.60;1.00
1391;DHT22;690;51.454;7.194;2023-03-21T00:04:10;12.60;1.00
1391;DHT22;690;51.454;7.194;2023-03-21T00:06:37;12.60;1.00
1391;DHT22;690;51.454;7.194;2023-03-21T00:09:03;12.60;1.00
1391;DHT22;690;51.454;7.194;2023-03-21T00:11:30;12.60;1.00
1391;DHT22;690;51.454;7.194;2023-03-21T00:13:58;12.60;1.00
1391;DHT22;690;51.454;7.194;2023-03-21T00:16:27;12.60;1.00
1391;DHT22;690;51.454;7.194;2023-03-21T00:18:55;12.60;1.00
1391;DHT22;690;51.454;7.194;2023-03-21T00:21:24;12.60;1.00
1391;DHT22;690;51.454;7.194;2023-03-21T00:23:53;12.60;1.00
1391;DHT22;690;51.454;7.194;2023-03-21T00:26:20;12.60;1.00
1391;DHT22;690;51.454;7.194;2023-03-21T00:28:48;12.60;1.00
1391;DHT22;690;51.454;7.194;2023-03-21T00:31:17;12.60;1.00
1391;DHT22;690;51.454;7.194;2023-03-21T00:33:44;12.60;1.00
1391;DHT22;690;51.454;7.194;2023-03-21T00:36:11;12.60;1.00
1391;DHT22;690;51.454;7.194;2023-03-21T00:38:38;12.60;1.00
1391;DHT22;690;51.454;7.194;2023-03-21T00:41:06;12.60;1.00
1391;DHT22;690;51.454;7.194;2023-03-21T00:43:33;12.60;1.00
1391;DHT22;690;51.454;7.194;2023-03-21T00:46:00;12.60;1.00
1391;DHT22;690;51.454;7.194;2023-03-21T00:48:29;12.70;1.00
1391;DHT22;690;51.454;7.194;2023-03-21T00:50:57;12.70;1.00
1391;DHT22;690;51.454;7.194;2023-03-21T00:53:25;12.70;1.00
1391;DHT22;690;51.454;7.194;2023-03-21T00:55:52;12.70;1.00
1391;DHT22;690;51.454;7.194;2023-03-21T00:58:19;12.70;1.00
1391;DHT22;690;51.454;7.194;2023-03-21T01:00:46;12.70;1.00
1391;DHT22;690;51.454;7.194;2023-03-21T01:03:14;12.70;1.00
1391;DHT22;690;51.454;7.194;2023-03-21T01:05:45;12.70;1.00
1391;DHT22;690;51.454;7.194;2023-03-21T01:08:32;12.70;1.00
1391;DHT22;690;51.454;7.194;2023-03-21T01:11:02;12.70;1.00
1391;DHT22;690;51.454;7.194;2023-03-21T01:13:29;12.70;1.00
1391;DHT22;690;51.454;7.194;2023-03-21T01:15:56;12.70;1.00
1391;DHT22;690;51.454;7.194;2023-03-21T01:18:26;12.70;1.00
1391;DHT22;690;51.454;7.194;2023-03-21T01:20:56;12.70;1.00
1391;DHT22;690;51.454;7.194;2023-03-21T01:23:25;12.80;1.00
1391;DHT22;690;51.454;7.194;2023-03-21T01:25:53;12.80;1.00
1391;DHT22;690;51.454;7.194;2023-03-21T01:28:21;12.80;1.00
1391;DHT22;690;51.454;7.194;2023-03-21T01:30:49;12.80;1.00
1391;DHT22;690;51.454;7.194;2023-03-21T01:33:17;12.80;1.00
1391;DHT22;690;51.454;7.194;2023-03-21T01:35:45;12.80;1.00
1391;DHT22;690;51.454;7.194;2023-03-21T01:38:13;12.70;1.00
1391;DHT22;690;51.454;7.194;2023-03-21T01:40:40;12.70;1.00
1391;DHT22;690;51.454;7.194;2023-03-21T01:43:19;12.70;1.00
1391;DHT22;690;51.454;7.194;2023-03-21T01:46:21;12.70;1.00
1391;DHT22;690;51.454;7.194;2023-03-21T01:48:54;12.70;1.00
1391;DHT22;690;51.454;7.194;2023-03-21T01:51:22;12.60;1.00
1391;DHT22;690;51.454;7.194;2023-03-21T01:53:51;12.50;1.00
1391;DHT22;690;51.454;7.194;2023-03-21T01:56:23;12.40;1.00
1391;DHT22;690;51.454;7.194;2023-03-21T01:58:53;12.30;1.00
1391;DHT22;690;51.454;7.194;2023-03-21T02:01:20;12.30;1.00
1391;DHT22;690;51.454;7.194;2023-03-21T02:03:49;12.30;1.00
1391;DHT22;690;51.454;7.194;2023-03-21T02:06:28;12.30;1.00
1391;DHT22;690;51.454;7.194;2023-03-21T02:09:02;12.30;1.00
1391;DHT22;690;51.454;7.194;2023-03-21T02:11:30;12.40;1.00
1391;DHT22;690;51.454;7.194;2023-03-21T02:13:58;12.30;1.00
1391;DHT22;690;51.454;7.194;2023-03-21T02:16:32;12.40;1.00
1391;DHT22;690;51.454;7.194;2023-03-21T02:25:11;12.40;1.00
1391;DHT22;690;51.454;7.194;2023-03-21T02:27:47;12.30;1.00
1391;DHT22;690;51.454;7.194;2023-03-21T02:30:37;12.30;1.00
1391;DHT22;690;51.454;7.194;2023-03-21T02:36:24;12.30;1.00
1391;DHT22;690;51.454;7.194;2023-03-21T02:38:58;12.40;1.00
1391;DHT22;690;51.454;7.194;2023-03-21T02:41:32;12.30;1.00
1391;DHT22;690;51.454;7.194;2023-03-21T02:44:06;12.30;1.00
1391;DHT22;690;51.454;7.194;2023-03-21T02:46:39;12.40;1.00
1391;DHT22;690;51.454;7.194;2023-03-21T02:49:11;12.40;1.00
1391;DHT22;690;51.454;7.194;2023-03-21T02:51:42;12.30;1.00
1391;DHT22;690;51.454;7.194;2023-03-21T02:54:15;12.40;1.00
1391;DHT22;690;51.454;7.194;2023-03-21T02:56:43;12.40;1.00
1391;DHT22;690;51.454;7.194;2023-03-21T02:59:14;12.40;1.00
1391;DHT22;690;51.454;7.194;2023-03-21T03:01:42;12.30;1.00
1391;DHT22;690;51.454;7.194;2023-03-21T03:04:17;12.30;1.00
1391;DHT22;690;51.454;7.194;2023-03-21T03:06:56;12.30;1.00
1391;DHT22;690;51.454;7.194;2023-03-21T03:09:33;12.30;1.00
1391;DHT22;690;51.454;7.194;2023-03-21T03:12:14;12.30;1.00
1391;DHT22;690;51.454;7.194;2023-03-21T03:14:52;12.30;1.00
1391;DHT22;690;51.454;7.194;2023-03-21T03:17:34;12.30;1.00
1391;DHT22;690;51.454;7.194;2023-03-21T03:20:13;12.20;1.00
1391;DHT22;690;51.454;7.194;2023-03-21T03:22:50;12.20;1.00
1391;DHT22;690;51.454;7.194;2023-03-21T03:25:23;12.20;1.00
1391;DHT22;690;51.454;7.194;2023-03-21T03:27:53;12.10;1.00
1391;DHT22;690;51.454;7.194;2023-03-21T03:30:22;12.10;1.00
1391;DHT22;690;51.454;7.194;2023-03-21T03:32:55;12.10;1.00
1391;DHT22;690;51.454;7.194;2023-03-21T03:35:23;12.10;1.00
1391;DHT22;690;51.454;7.194;2023-03-21T03:37:54;12.10;1.00
1391;DHT22;690;51.454;7.194;2023-03-21T03:40:26;12.20;1.00
1391;DHT22;690;51.454;7.194;2023-03-21T03:42:59;12.20;1.00
1391;DHT22;690;51.454;7.194;2023-03-21T03:45:30;12.20;1.00
1391;DHT22;690;51.454;7.194;2023-03-21T03:48:04;12.20;1.00
1391;DHT22;690;51.454;7.194;2023-03-21T03:50:37;12.20;1.00
1391;DHT22;690;51.454;7.194;2023-03-21T03:53:10;12.20;1.00
1391;DHT22;690;51.454;7.194;2023-03-21T03:55:40;12.20;1.00
1391;DHT22;690;51.454;7.194;2023-03-21T03:58:07;12.20;1.00
1391;DHT22;690;51.454;7.194;2023-03-21T04:00:34;12.20;1.00
1391;DHT22;690;51.454;7.194;2023-03-21T04:03:01;12.20;1.00
1391;DHT22;690;51.454;7.194;2023-03-21T04:05:32;12.20;1.00
1391;DHT22;690;51.454;7.194;2023-03-21T04:07:58;12.20;1.00
1391;DHT22;690;51.454;7.194;2023-03-21T04:10:25;12.20;1.00
1391;DHT22;690;51.454;7.194;2023-03-21T04:12:53;12.20;1.00
1391;DHT22;690;51.454;7.194;2023-03-21T04:15:20;12.20;1.00
1391;DHT22;690;51.454;7.194;2023-03-21T04:17:47;12.20;1.00
1391;DHT22;690;51.454;7.194;2023-03-21T04:20:15;12.10;1.00
1391;DHT22;690;51.454;7.194;2023-03-21T04:22:42;12.10;1.00
1391;DHT22;690;51.454;7.194;2023-03-21T04:25:09;12.10;1.00
1391;DHT22;690;51.454;7.194;2023-03-21T04:27:38;12.00;1.00
1391;DHT22;690;51.454;7.194;2023-03-21T04:30:07;12.00;1.00
1391;DHT22;690;51.454;7.194;2023-03-21T04:32:36;12.00;1.00
1391;DHT22;690;51.454;7.194;2023-03-21T04:35:05;12.00;1.00
1391;DHT22;690;51.454;7.194;2023-03-21T04:37:33;12.00;1.00
1391;DHT22;690;51.454;7.194;2023-03-21T04:40:00;12.00;1.00
1391;DHT22;690;51.454;7.194;2023-03-21T04:42:31;12.00;1.00
1391;DHT22;690;51.454;7.194;2023-03-21T04:44:58;12.00;1.00
1391;DHT22;690;51.454;7.194;2023-03-21T04:47:26;12.00;1.00
1391;DHT22;690;51.454;7.194;2023-03-21T04:49:53;12.00;1.00
1391;DHT22;690;51.454;7.194;2023-03-21T04:52:21;12.00;1.00
1391;DHT22;690;51.454;7.194;2023-03-21T04:54:48;12.00;1.00
1391;DHT22;690;51.454;7.194;2023-03-21T04:57:15;11.90;1.00
1391;DHT22;690;51.454;7.194;2023-03-21T04:59:42;12.00;1.00
1391;DHT22;690;51.454;7.194;2023-03-21T05:02:10;12.00;1.00
1391;DHT22;690;51.454;7.194;2023-03-21T05:04:39;12.00;1.00
1391;DHT22;690;51.454;7.194;2023-03-21T05:07:06;12.00;1.00
1391;DHT22;690;51.454;7.194;2023-03-21T05:09:33;12.10;1.00
1391;DHT22;690;51.454;7.194;2023-03-21T05:12:00;12.10;1.00
1391;DHT22;690;51.454;7.194;2023-03-21T05:14:27;12.10;1.00
1391;DHT22;690;51.454;7.194;2023-03-21T05:16:54;12.10;1.00
1391;DHT22;690;51.454;7.194;2023-03-21T05:19:24;12.10;1.00
1391;DHT22;690;51.454;7.194;2023-03-21T05:22:02;12.10;1.00
1391;DHT22;690;51.454;7.194;2023-03-21T05:24:30;12.20;1.00
1391;DHT22;690;51.454;7.194;2023-03-21T05:26:58;12.20;1.00
1391;DHT22;690;51.454;7.194;2023-03-21T05:29:28;12.20;1.00
1391;DHT22;690;51.454;7.194;2023-03-21T05:31:55;12.20;1.00
1391;DHT22;690;51.454;7.194;2023-03-21T05:34:22;12.20;1.00
1391;DHT22;690;51.454;7.194;2023-03-21T05:36:50;12.20;1.00
1391;DHT22;690;51.454;7.194;2023-03-21T05:39:18;12.30;1.00
1391;DHT22;690;51.454;7.194;2023-03-21T05:41:45;12.30;1.00
1391;DHT22;690;51.454;7.194;2023-03-21T05:44:12;12.30;1.00
1391;DHT22;690;51.454;7.194;2023-03-21T05:46:39;12.30;1.00
1391;DHT22;690;51.454;7.194;2023-03-21T05:49:08;12.30;1.00
1391;DHT22;690;51.454;7.194;2023-03-21T05:51:35;12.30;1.00
1391;DHT22;690;51.454;7.194;2023-03-21T05:54:02;12.40;1.00
1391;DHT22;690;51.454;7.194;2023-03-21T05:56:30;12.40;1.00
1391;DHT22;690;51.454;7.194;2023-03-21T05:58:57;12.40;1.00
1391;DHT22;690;51.454;7.194;2023-03-21T06:01:24;12.50;1.00
1391;DHT22;690;51.454;7.194;2023-03-21T06:03:51;12.50;1.00
1391;DHT22;690;51.454;7.194;2023-03-21T06:06:18;12.50;1.00
1391;DHT22;690;51.454;7.194;2023-03-21T06:08:45;12.60;1.00
1391;DHT22;690;51.454;7.194;2023-03-21T06:11:21;12.60;1.00
1391;DHT22;690;51.454;7.194;2023-03-21T06:13:50;12.50;1.00
1391;DHT22;690;51.454;7.194;2023-03-21T06:16:17;12.60;1.00
1391;DHT22;690;51.454;7.194;2023-03-21T06:18:44;12.60;1.00
1391;DHT22;690;51.454;7.194;2023-03-21T06:21:11;12.60;1.00
1391;DHT22;690;51.454;7.194;2023-03-21T06:23:38;12.60;1.00
1391;DHT22;690;51.454;7.194;2023-03-21T06:26:05;12.60;1.00
1391;DHT22;690;51.454;7.194;2023-03-21T06:28:32;12.70;1.00
1391;DHT22;690;51.454;7.194;2023-03-21T06:31:01;12.70;1.00
1391;DHT22;690;51.454;7.194;2023-03-21T06:33:28;12.70;1.00
1391;DHT22;690;51.454;7.194;2023-03-21T06:35:56;12.80;1.00
1391;DHT22;690;51.454;7.194;2023-03-21T06:38:24;12.80;1.00
1391;DHT22;690;51.454;7.194;2023-03-21T06:40:51;12.80;1.00
1391;DHT22;690;51.454;7.194;2023-03-21T06:43:17;12.80;1.00
1391;DHT22;690;51.454;7.194;2023-03-21T06:45:44;12.90;1.00
1391;DHT22;690;51.454;7.194;2023-03-21T06:48:13;12.90;1.00
1391;DHT22;690;51.454;7.194;2023-03-21T06:50:40;12.90;1.00
1391;DHT22;690;51.454;7.194;2023-03-21T06:53:07;12.90;1.00
1391;DHT22;690;51.454;7.194;2023-03-21T06:55:33;12.90;1.00
1391;DHT22;690;51.454;7.194;2023-03-21T06:58:00;12.90;1.00
1391;DHT22;690;51.454;7.194;2023-03-21T07:00:27;12.90;1.00
1391;DHT22;690;51.454;7.194;2023-03-21T07:02:54;13.00;1.00
1391;DHT22;690;51.454;7.194;2023-03-21T07:05:23;13.00;1.00
1391;DHT22;690;51.454;7.194;2023-03-21T07:07:49;13.00;1.00
1391;DHT22;690;51.454;7.194;2023-03-21T07:10:17;13.10;1.00
1391;DHT22;690;51.454;7.194;2023-03-21T07:12:43;13.10;1.00
1391;DHT22;690;51.454;7.194;2023-03-21T07:15:10;13.10;1.00
1391;DHT22;690;51.454;7.194;2023-03-21T07:17:37;13.10;1.00
1391;DHT22;690;51.454;7.194;2023-03-21T07:20:05;13.10;1.00
1391;DHT22;690;51.454;7.194;2023-03-21T07:22:34;13.10;1.00
1391;DHT22;690;51.454;7.194;2023-03-21T07:25:01;13.10;1.00
1391;DHT22;690;51.454;7.194;2023-03-21T07:27:28;13.10;1.00
1391;DHT22;690;51.454;7.194;2023-03-21T07:29:55;13.10;1.00
1391;DHT22;690;51.454;7.194;2023-03-21T07:32:22;13.10;1.00
1391;DHT22;690;51.454;7.194;2023-03-21T07:34:49;13.10;1.00
1391;DHT22;690;51.454;7.194;2023-03-21T07:37:15;13.10;1.00
1391;DHT22;690;51.454;7.194;2023-03-21T07:39:44;13.10;1.00
1391;DHT22;690;51.454;7.194;2023-03-21T07:42:10;13.10;1.00
1391;DHT22;690;51.454;7.194;2023-03-21T07:44:37;13.20;1.00
1391;DHT22;690;51.454;7.194;2023-03-21T07:47:04;13.20;1.00
1391;DHT22;690;51.454;7.194;2023-03-21T07:49:32;13.20;1.00
1391;DHT22;690;51.454;7.194;2023-03-21T07:51:59;13.20;1.00
1391;DHT22;690;51.454;7.194;2023-03-21T07:54:26;13.20;1.00
1391;DHT22;690;51.454;7.194;2023-03-21T07:56:55;13.20;1.00
1391;DHT22;690;51.454;7.194;2023-03-21T07:59:22;13.20;1.00
1391;DHT22;690;51.454;7.194;2023-03-21T08:01:49;13.20;1.00
1391;DHT22;690;51.454;7.194;2023-03-21T08:04:16;13.20;1.00
1391;DHT22;690;51.454;7.194;2023-03-21T08:06:43;13.20;1.00
1391;DHT22;690;51.454;7.194;2023-03-21T08:09:10;13.20;1.00
1391;DHT22;690;51.454;7.194;2023-03-21T08:11:37;13.20;1.00
1391;DHT22;690;51.454;7.194;2023-03-21T08:14:05;13.30;1.00
1391;DHT22;690;51.454;7.194;2023-03-21T08:16:31;13.40;1.00
1391;DHT22;690;51.454;7.194;2023-03-21T08:18:58;13.50;1.00
1391;DHT22;690;51.454;7.194;2023-03-21T08:21:25;13.60;1.00
1391;DHT22;690;51.454;7.194;2023-03-21T08:23:52;13.70;1.00
1391;DHT22;690;51.454;7.194;2023-03-21T08:26:19;13.80;1.00
1391;DHT22;690;51.454;7.194;2023-03-21T08:28:49;13.90;1.00
1391;DHT22;690;51.454;7.194;2023-03-21T08:31:18;13.90;1.00
1391;DHT22;690;51.454;7.194;2023-03-21T08:33:46;13.90;1.00
1391;DHT22;690;51.454;7.194;2023-03-21T08:36:15;14.00;1.00
1391;DHT22;690;51.454;7.194;2023-03-21T08:38:42;14.10;1.00
1391;DHT22;690;51.454;7.194;2023-03-21T08:41:10;14.20;1.00
1391;DHT22;690;51.454;7.194;2023-03-21T08:43:37;14.20;1.00
1391;DHT22;690;51.454;7.194;2023-03-21T08:46:05;14.30;1.00
1391;DHT22;690;51.454;7.194;2023-03-21T08:48:33;14.40;1.00
1391;DHT22;690;51.454;7.194;2023-03-21T08:51:03;14.50;1.00
1391;DHT22;690;51.454;7.194;2023-03-21T08:53:30;14.60;1.00
1391;DHT22;690;51.454;7.194;2023-03-21T08:55:57;14.70;1.00
1391;DHT22;690;51.454;7.194;2023-03-21T08:58:24;14.80;1.00
1391;DHT22;690;51.454;7.194;2023-03-21T09:00:51;14.80;1.00
1391;DHT22;690;51.454;7.194;2023-03-21T09:03:18;14.90;1.00
1391;DHT22;690;51.454;7.194;2023-03-21T09:05:46;15.00;1.00
1391;DHT22;690;51.454;7.194;2023-03-21T09:08:14;15.00;1.00
1391;DHT22;690;51.454;7.194;2023-03-21T09:10:41;15.10;1.00
1391;DHT22;690;51.454;7.194;2023-03-21T09:13:08;15.10;1.00
1391;DHT22;690;51.454;7.194;2023-03-21T09:15:35;15.10;1.00
1391;DHT22;690;51.454;7.194;2023-03-21T09:18:02;15.10;1.00
1391;DHT22;690;51.454;7.194;2023-03-21T09:20:38;15.10;1.00
1391;DHT22;690;51.454;7.194;2023-03-21T09:23:06;15.20;1.00
1391;DHT22;690;51.454;7.194;2023-03-21T09:25:33;15.20;1.00
1391;DHT22;690;51.454;7.194;2023-03-21T09:28:01;15.30;1.00
1391;DHT22;690;51.454;7.194;2023-03-21T09:30:29;15.40;1.00
1391;DHT22;690;51.454;7.194;2023-03-21T09:32:58;15.40;1.00
1391;DHT22;690;51.454;7.194;2023-03-21T09:35:26;15.40;1.00
1391;DHT22;690;51.454;7.194;2023-03-21T09:37:53;15.50;1.00
1391;DHT22;690;51.454;7.194;2023-03-21T09:40:36;15.60;1.00
1391;DHT22;690;51.454;7.194;2023-03-21T09:43:10;15.60;1.00
1391;DHT22;690;51.454;7.194;2023-03-21T09:45:46;15.60;1.00
1391;DHT22;690;51.454;7.194;2023-03-21T09:48:21;15.50;1.00
1391;DHT22;690;51.454;7.194;2023-03-21T09:50:54;15.50;1.00
1391;DHT22;690;51.454;7.194;2023-03-21T09:53:25;15.40;1.00
1391;DHT22;690;51.454;7.194;2023-03-21T09:55:54;15.40;1.00
1391;DHT22;690;51.454;7.194;2023-03-21T09:58:25;15.40;1.00
1391;DHT22;690;51.454;7.194;2023-03-21T10:00:58;15.40;1.00
1391;DHT22;690;51.454;7.194;2023-03-21T10:03:29;15.30;1.00
1391;DHT22;690;51.454;7.194;2023-03-21T10:06:03;15.30;1.00
1391;DHT22;690;51.454;7.194;2023-03-21T10:08:34;15.40;1.00
1391;DHT22;690;51.454;7.194;2023-03-21T10:11:08;15.40;1.00
1391;DHT22;690;51.454;7.194;2023-03-21T10:13:41;15.50;1.00
1391;DHT22;690;51.454;7.194;2023-03-21T10:16:12;15.60;1.00
1391;DHT22;690;51.454;7.194;2023-03-21T10:18:40;15.70;1.00
1391;DHT22;690;51.454;7.194;2023-03-21T10:21:16;15.80;1.00
1391;DHT22;690;51.454;7.194;2023-03-21T10:23:45;15.90;1.00
1391;DHT22;690;51.454;7.194;2023-03-21T10:26:13;16.00;1.00
1391;DHT22;690;51.454;7.194;2023-03-21T10:28:40;16.20;1.00
1391;DHT22;690;51.454;7.194;2023-03-21T10:31:10;16.30;1.00
1391;DHT22;690;51.454;7.194;2023-03-21T10:33:42;16.40;1.00
1391;DHT22;690;51.454;7.194;2023-03-21T10:36:13;16.50;1.00
1391;DHT22;690;51.454;7.194;2023-03-21T10:38:44;16.50;1.00
1391;DHT22;690;51.454;7.194;2023-03-21T10:41:13;16.40;1.00
1391;DHT22;690;51.454;7.194;2023-03-21T10:43:41;16.40;1.00
1391;DHT22;690;51.454;7.194;2023-03-21T10:46:12;16.30;1.00
1391;DHT22;690;51.454;7.194;2023-03-21T10:48:41;16.20;1.00
1391;DHT22;690;51.454;7.194;2023-03-21T10:51:16;16.30;1.00
1391;DHT22;690;51.454;7.194;2023-03-21T10:53:48;16.40;1.00
1391;DHT22;690;51.454;7.194;2023-03-21T10:56:17;16.50;1.00
1391;DHT22;690;51.454;7.194;2023-03-21T10:58:48;16.50;1.00
1391;DHT22;690;51.454;7.194;2023-03-21T11:01:25;16.50;1.00
1391;DHT22;690;51.454;7.194;2023-03-21T11:03:56;16.50;1.00
1391;DHT22;690;51.454;7.194;2023-03-21T11:06:27;16.50;1.00
1391;DHT22;690;51.454;7.194;2023-03-21T11:08:57;16.40;1.00
1391;DHT22;690;51.454;7.194;2023-03-21T11:11:27;16.30;1.00
1391;DHT22;690;51.454;7.194;2023-03-21T11:13:57;16.30;1.00
1391;DHT22;690;51.454;7.194;2023-03-21T11:16:29;16.30;1.00
1391;DHT22;690;51.454;7.194;2023-03-21T11:19:00;16.20;1.00
1391;DHT22;690;51.454;7.194;2023-03-21T11:21:34;16.20;1.00
1391;DHT22;690;51.454;7.194;2023-03-21T11:24:02;16.30;1.00
1391;DHT22;690;51.454;7.194;2023-03-21T11:26:33;16.30;1.00
1391;DHT22;690;51.454;7.194;2023-03-21T11:29:10;16.30;1.00
1391;DHT22;690;51.454;7.194;2023-03-21T11:31:40;16.30;1.00
1391;DHT22;690;51.454;7.194;2023-03-21T11:34:08;16.30;1.00
1391;DHT22;690;51.454;7.194;2023-03-21T11:36:36;16.40;1.00
1391;DHT22;690;51.454;7.194;2023-03-21T11:39:27;16.50;1.00
1391;DHT22;690;51.454;7.194;2023-03-21T11:41:57;16.70;1.00
1391;DHT22;690;51.454;7.194;2023-03-21T11:44:27;16.90;1.00
1391;DHT22;690;51.454;7.194;2023-03-21T11:46:54;17.10;1.00
1391;DHT22;690;51.454;7.194;2023-03-21T11:49:22;17.40;1.00
1391;DHT22;690;51.454;7.194;2023-03-21T11:51:57;17.50;1.00
1391;DHT22;690;51.454;7.194;2023-03-21T11:54:33;17.60;1.00
1391;DHT22;690;51.454;7.194;2023-03-21T11:57:06;17.60;1.00
1391;DHT22;690;51.454;7.194;2023-03-21T11:59:42;17.60;1.00
1391;DHT22;690;51.454;7.194;2023-03-21T12:02:44;17.60;1.00
1391;DHT22;690;51.454;7.194;2023-03-21T12:05:24;17.50;1.00
1391;DHT22;690;51.454;7.194;2023-03-21T12:07:56;17.60;99.90
1391;DHT22;690;51.454;7.194;2023-03-21T12:10:39;17.60;99.90
1391;DHT22;690;51.454;7.194;2023-03-21T12:13:27;17.70;99.90
1391;DHT22;690;51.454;7.194;2023-03-21T12:16:06;17.80;99.90
1391;DHT22;690;51.454;7.194;2023-03-21T12:18:51;18.00;99.90
1391;DHT22;690;51.454;7.194;2023-03-21T12:21:28;18.20;99.90
1391;DHT22;690;51.454;7.194;2023-03-21T12:24:04;18.30;99.90
1391;DHT22;690;51.454;7.194;2023-03-21T12:26:38;18.30;99.90
1391;DHT22;690;51.454;7.194;2023-03-21T12:29:32;18.30;99.90
1391;DHT22;690;51.454;7.194;2023-03-21T12:32:09;18.20;99.90
1391;DHT22;690;51.454;7.194;2023-03-21T12:34:58;18.10;99.90
1391;DHT22;690;51.454;7.194;2023-03-21T12:37:32;18.10;99.90
1391;DHT22;690;51.454;7.194;2023-03-21T12:40:08;18.00;99.90
1391;DHT22;690;51.454;7.194;2023-03-21T12:42:49;17.90;99.90
1391;DHT22;690;51.454;7.194;2023-03-21T12:45:22;17.80;99.90
1391;DHT22;690;51.454;7.194;2023-03-21T12:47:52;17.80;99.90
1391;DHT22;690;51.454;7.194;2023-03-21T12:50:25;17.80;99.90
1391;DHT22;690;51.454;7.194;2023-03-21T12:52:56;17.70;99.90
1391;DHT22;690;51.454;7.194;2023-03-21T12:55:26;17.60;99.90
1391;DHT22;690;51.454;7.194;2023-03-21T12:58:00;17.60;99.90
1391;DHT22;690;51.454;7.194;2023-03-21T13:00:34;17.60;99.90
1391;DHT22;690;51.454;7.194;2023-03-21T13:03:03;17.50;99.90
1391;DHT22;690;51.454;7.194;2023-03-21T13:05:33;17.40;99.90
1391;DHT22;690;51.454;7.194;2023-03-21T13:08:06;17.30;99.90
1391;DHT22;690;51.454;7.194;2023-03-21T13:10:35;17.10;99.90
1391;DHT22;690;51.454;7.194;2023-03-21T13:13:13;17.00;99.90
1391;DHT22;690;51.454;7.194;2023-03-21T13:15:54;16.90;99.90
1391;DHT22;690;51.454;7.194;2023-03-21T13:18:32;17.00;99.90
1391;DHT22;690;51.454;7.194;2023-03-21T13:21:07;17.00;99.90
1391;DHT22;690;51.454;7.194;2023-03-21T13:23:36;17.10;99.90
1391;DHT22;690;51.454;7.194;2023-03-21T13:26:07;17.10;99.90
1391;DHT22;690;51.454;7.194;2023-03-21T13:28:38;17.10;99.90
1391;DHT22;690;51.454;7.194;2023-03-21T13:31:17;17.20;99.90
1391;DHT22;690;51.454;7.194;2023-03-21T13:33:45;17.30;99.90
1391;DHT22;690;51.454;7.194;2023-03-21T13:36:16;17.40;99.90
1391;DHT22;690;51.454;7.194;2023-03-21T13:38:49;17.30;99.90
1391;DHT22;690;51.454;7.194;2023-03-21T13:41:18;17.30;99.90
1391;DHT22;690;51.454;7.194;2023-03-21T13:43:51;17.30;99.90
1391;DHT22;690;51.454;7.194;2023-03-21T13:49:25;17.20;99.90
1391;DHT22;690;51.454;7.194;2023-03-21T13:51:53;17.10;99.90
1391;DHT22;690;51.454;7.194;2023-03-21T13:54:27;17.10;99.90
1391;DHT22;690;51.454;7.194;2023-03-21T13:56:59;17.00;99.90
1391;DHT22;690;51.454;7.194;2023-03-21T13:59:38;17.00;99.90
1391;DHT22;690;51.454;7.194;2023-03-21T14:02:27;16.90;99.90
1391;DHT22;690;51.454;7.194;2023-03-21T14:04:59;16.90;99.90
1391;DHT22;690;51.454;7.194;2023-03-21T14:07:28;16.90;99.90
1391;DHT22;690;51.454;7.194;2023-03-21T14:09:58;17.00;99.90
1391;DHT22;690;51.454;7.194;2023-03-21T14:12:28;17.00;99.90
1391;DHT22;690;51.454;7.194;2023-03-21T14:14:59;17.10;99.90
1391;DHT22;690;51.454;7.194;2023-03-21T14:17:29;17.10;99.90
1391;DHT22;690;51.454;7.194;2023-03-21T14:20:08;17.10;99.90
1391;DHT22;690;51.454;7.194;2023-03-21T14:22:39;17.10;99.90
1391;DHT22;690;51.454;7.194;2023-03-21T14:25:09;17.00;99.90
1391;DHT22;690;51.454;7.194;2023-03-21T14:27:37;17.00;99.90
1391;DHT22;690;51.454;7.194;2023-03-21T14:30:11;17.00;99.90
1391;DHT22;690;51.454;7.194;2023-03-21T14:32:46;16.90;99.90
1391;DHT22;690;51.454;7.194;2023-03-21T14:35:14;17.00;99.90
1391;DHT22;690;51.454;7.194;2023-03-21T14:37:44;17.00;99.90
1391;DHT22;690;51.454;7.194;2023-03-21T14:40:20;17.00;99.90
1391;DHT22;690;51.454;7.194;2023-03-21T14:42:48;17.10;99.90
1391;DHT22;690;51.454;7.194;2023-03-21T14:45:16;17.20;99.90
1391;DHT22;690;51.454;7.194;2023-03-21T14:47:54;17.30;99.90
1391;DHT22;690;51.454;7.194;2023-03-21T14:50:24;17.40;99.90
1391;DHT22;690;51.454;7.194;2023-03-21T14:52:54;17.40;99.90
1391;DHT22;690;51.454;7.194;2023-03-21T14:55:23;17.40;99.90
1391;DHT22;690;51.454;7.194;2023-03-21T14:57:50;17.50;99.90
1391;DHT22;690;51.454;7.194;2023-03-21T15:00:21;17.60;99.90
1391;DHT22;690;51.454;7.194;2023-03-21T15:02:50;17.60;99.90
1391;DHT22;690;51.454;7.194;2023-03-21T15:05:21;17.70;99.90
1391;DHT22;690;51.454;7.194;2023-03-21T15:07:55;17.60;99.90
1391;DHT22;690;51.454;7.194;2023-03-21T15:10:23;17.60;99.90
1391;DHT22;690;51.454;7.194;2023-03-21T15:12:52;17.60;99.90
1391;DHT22;690;51.454;7.194;2023-03-21T15:15:22;17.50;99.90
1391;DHT22;690;51.454;7.194;2023-03-21T15:17:49;17.40;99.90
1391;DHT22;690;51.454;7.194;2023-03-21T15:20:20;17.30;99.90
1391;DHT22;690;51.454;7.194;2023-03-21T15:22:50;17.30;99.90
1391;DHT22;690;51.454;7.194;2023-03-21T15:25:22;17.30;99.90
1391;DHT22;690;51.454;7.194;2023-03-21T15:27:51;17.40;99.90
1391;DHT22;690;51.454;7.194;2023-03-21T15:30:20;17.40;99.90
1391;DHT22;690;51.454;7.194;2023-03-21T15:32:48;17.40;99.90
1391;DHT22;690;51.454;7.194;2023-03-21T15:35:19;17.40;99.90
1391;DHT22;690;51.454;7.194;2023-03-21T15:37:52;17.40;99.90
1391;DHT22;690;51.454;7.194;2023-03-21T15:40:23;17.40;99.90
1391;DHT22;690;51.454;7.194;2023-03-21T15:42:51;17.60;99.90
1391;DHT22;690;51.454;7.194;2023-03-21T15:45:29;17.70;99.90
1391;DHT22;690;51.454;7.194;2023-03-21T15:47:59;18.00;99.90
1391;DHT22;690;51.454;7.194;2023-03-21T15:50:33;18.20;99.90
1391;DHT22;690;51.454;7.194;2023-03-21T15:53:02;18.20;99.90
1391;DHT22;690;51.454;7.194;2023-03-21T15:55:37;18.20;99.90
1391;DHT22;690;51.454;7.194;2023-03-21T15:58:10;18.00;99.90
1391;DHT22;690;51.454;7.194;2023-03-21T16:00:45;17.90;99.90
1391;DHT22;690;51.454;7.194;2023-03-21T16:03:17;17.80;99.90
1391;DHT22;690;51.454;7.194;2023-03-21T16:06:00;17.70;99.90
1391;DHT22;690;51.454;7.194;2023-03-21T16:08:31;17.70;99.90
1391;DHT22;690;51.454;7.194;2023-03-21T16:11:07;17.70;99.90
1391;DHT22;690;51.454;7.194;2023-03-21T16:13:39;18.00;99.90
1391;DHT22;690;51.454;7.194;2023-03-21T16:16:08;18.10;99.90
1391;DHT22;690;51.454;7.194;2023-03-21T16:18:39;18.20;99.90
1391;DHT22;690;51.454;7.194;2023-03-21T16:21:10;18.30;99.90
1391;DHT22;690;51.454;7.194;2023-03-21T16:23:37;18.40;99.90
1391;DHT22;690;51.454;7.194;2023-03-21T16:26:05;18.60;99.90
1391;DHT22;690;51.454;7.194;2023-03-21T16:28:34;18.70;99.90
1391;DHT22;690;51.454;7.194;2023-03-21T16:31:01;18.70;99.90
1391;DHT22;690;51.454;7.194;2023-03-21T16:33:28;18.60;99.90
1391;DHT22;690;51.454;7.194;2023-03-21T16:35:55;18.40;99.90
1391;DHT22;690;51.454;7.194;2023-03-21T16:38:22;18.10;99.90
1391;DHT22;690;51.454;7.194;2023-03-21T16:40:50;17.90;99.90
1391;DHT22;690;51.454;7.194;2023-03-21T16:43:19;17.60;99.90
1391;DHT22;690;51.454;7.194;2023-03-21T16:45:46;17.50;99.90
1391;DHT22;690;51.454;7.194;2023-03-21T16:48:13;17.40;99.90
1391;DHT22;690;51.454;7.194;2023-03-21T16:50:45;17.30;99.90
1391;DHT22;690;51.454;7.194;2023-03-21T16:53:12;17.20;99.90
1391;DHT22;690;51.454;7.194;2023-03-21T16:55:39;17.10;99.90
1391;DHT22;690;51.454;7.194;2023-03-21T16:58:07;17.00;99.90
1391;DHT22;690;51.454;7.194;2023-03-21T17:00:35;16.90;99.90
1391;DHT22;690;51.454;7.194;2023-03-21T17:03:12;16.80;99.90